sensor_id;sensor_type;location;lat;lon;timestamp;P1;durP1;ratioP1;P2;durP2;ratioP2
10934;SDS011;5520;45.752;4.874;2023-03-01T00:00:40;11.37;;;7.90;;
10934;SDS011;5520;45.752;4.874;2023-03-01T00:03:12;10.50;;;7.90;;
10934;SDS011;5520;45.752;4.874;2023-03-01T00:05:43;10.47;;;8.13;;
10934;SDS011;5520;45.752;4.874;2023-03-01T00:08:11;11.37;;;8.50;;
10934;SDS011;5520;45.752;4.874;2023-03-01T00:10:40;9.67;;;8.00;;
10934;SDS011;5520;45.752;4.874;2023-03-01T00:13:08;8.90;;;7.43;;
10934;SDS011;5520;45.752;4.874;2023-03-01T00:15:38;13.37;;;8.87;;
10934;SDS011;5520;45.752;4.874;2023-03-01T00:18:06;10.10;;;8.20;;
10934;SDS011;5520;45.752;4.874;2023-03-01T00:20:34;9.80;;;7.33;;
10934;SDS011;5520;45.752;4.874;2023-03-01T00:23:02;13.00;;;9.10;;
10934;SDS011;5520;45.752;4.874;2023-03-01T00:25:30;10.13;;;7.83;;
10934;SDS011;5520;45.752;4.874;2023-03-01T00:27:59;12.73;;;9.37;;
10934;SDS011;5520;45.752;4.874;2023-03-01T00:30:27;13.80;;;9.23;;
10934;SDS011;5520;45.752;4.874;2023-03-01T00:32:55;9.93;;;7.83;;
10934;SDS011;5520;45.752;4.874;2023-03-01T00:35:23;12.30;;;8.27;;
10934;SDS011;5520;45.752;4.874;2023-03-01T00:37:51;11.27;;;8.60;;
10934;SDS011;5520;45.752;4.874;2023-03-01T00:40:24;12.30;;;8.63;;
10934;SDS011;5520;45.752;4.874;2023-03-01T00:42:52;10.43;;;7.40;;
10934;SDS011;5520;45.752;4.874;2023-03-01T00:45:21;12.90;;;9.40;;
10934;SDS011;5520;45.752;4.874;2023-03-01T00:47:49;12.03;;;8.60;;
10934;SDS011;5520;45.752;4.874;2023-03-01T00:50:18;13.23;;;8.90;;
10934;SDS011;5520;45.752;4.874;2023-03-01T00:52:46;10.60;;;8.17;;
10934;SDS011;5520;45.752;4.874;2023-03-01T00:55:14;11.30;;;8.67;;
10934;SDS011;5520;45.752;4.874;2023-03-01T00:57:42;11.60;;;8.73;;
10934;SDS011;5520;45.752;4.874;2023-03-01T01:00:10;11.27;;;8.90;;
10934;SDS011;5520;45.752;4.874;2023-03-01T01:02:40;10.67;;;8.63;;
10934;SDS011;5520;45.752;4.874;2023-03-01T01:05:08;9.50;;;8.20;;
10934;SDS011;5520;45.752;4.874;2023-03-01T01:07:36;13.60;;;9.73;;
10934;SDS011;5520;45.752;4.874;2023-03-01T01:10:05;10.83;;;8.37;;
10934;SDS011;5520;45.752;4.874;2023-03-01T01:12:33;8.73;;;7.50;;
10934;SDS011;5520;45.752;4.874;2023-03-01T01:15:01;10.67;;;8.17;;
10934;SDS011;5520;45.752;4.874;2023-03-01T01:17:29;12.33;;;8.43;;
10934;SDS011;5520;45.752;4.874;2023-03-01T01:19:58;10.50;;;8.73;;
10934;SDS011;5520;45.752;4.874;2023-03-01T01:22:26;13.13;;;9.17;;
10934;SDS011;5520;45.752;4.874;2023-03-01T01:24:54;11.07;;;8.27;;
10934;SDS011;5520;45.752;4.874;2023-03-01T01:27:22;13.43;;;8.70;;
10934;SDS011;5520;45.752;4.874;2023-03-01T01:29:52;15.80;;;8.73;;
10934;SDS011;5520;45.752;4.874;2023-03-01T01:32:20;10.87;;;8.33;;
10934;SDS011;5520;45.752;4.874;2023-03-01T01:34:50;10.57;;;8.57;;
10934;SDS011;5520;45.752;4.874;2023-03-01T01:37:19;13.07;;;8.63;;
10934;SDS011;5520;45.752;4.874;2023-03-01T01:39:47;12.20;;;8.53;;
10934;SDS011;5520;45.752;4.874;2023-03-01T01:42:16;12.23;;;8.37;;
10934;SDS011;5520;45.752;4.874;2023-03-01T01:44:45;13.13;;;8.93;;
10934;SDS011;5520;45.752;4.874;2023-03-01T01:47:14;14.63;;;9.50;;
10934;SDS011;5520;45.752;4.874;2023-03-01T01:49:44;11.43;;;9.10;;
10934;SDS011;5520;45.752;4.874;2023-03-01T01:52:16;16.50;;;9.20;;
10934;SDS011;5520;45.752;4.874;2023-03-01T01:54:49;13.30;;;8.43;;
10934;SDS011;5520;45.752;4.874;2023-03-01T01:57:18;14.03;;;8.70;;
10934;SDS011;5520;45.752;4.874;2023-03-01T01:59:48;13.67;;;8.80;;
10934;SDS011;5520;45.752;4.874;2023-03-01T02:02:18;17.73;;;8.83;;
10934;SDS011;5520;45.752;4.874;2023-03-01T02:04:47;11.23;;;8.87;;
10934;SDS011;5520;45.752;4.874;2023-03-01T02:07:16;10.97;;;8.73;;
10934;SDS011;5520;45.752;4.874;2023-03-01T02:09:48;12.87;;;9.03;;
10934;SDS011;5520;45.752;4.874;2023-03-01T02:12:18;14.63;;;8.53;;
10934;SDS011;5520;45.752;4.874;2023-03-01T02:14:49;10.47;;;8.87;;
10934;SDS011;5520;45.752;4.874;2023-03-01T02:17:17;12.27;;;8.87;;
10934;SDS011;5520;45.752;4.874;2023-03-01T02:19:49;12.13;;;9.33;;
10934;SDS011;5520;45.752;4.874;2023-03-01T02:22:20;14.00;;;10.13;;
10934;SDS011;5520;45.752;4.874;2023-03-01T02:24:55;12.70;;;9.17;;
10934;SDS011;5520;45.752;4.874;2023-03-01T02:27:32;16.73;;;9.37;;
10934;SDS011;5520;45.752;4.874;2023-03-01T02:30:02;11.83;;;9.00;;
10934;SDS011;5520;45.752;4.874;2023-03-01T02:32:30;13.60;;;9.07;;
10934;SDS011;5520;45.752;4.874;2023-03-01T02:34:57;12.50;;;8.60;;
10934;SDS011;5520;45.752;4.874;2023-03-01T02:37:26;11.70;;;9.00;;
10934;SDS011;5520;45.752;4.874;2023-03-01T02:39:55;12.43;;;8.53;;
10934;SDS011;5520;45.752;4.874;2023-03-01T02:42:26;12.83;;;8.83;;
10934;SDS011;5520;45.752;4.874;2023-03-01T02:44:55;14.07;;;9.80;;
10934;SDS011;5520;45.752;4.874;2023-03-01T02:47:25;11.80;;;8.80;;
10934;SDS011;5520;45.752;4.874;2023-03-01T02:49:53;14.23;;;9.10;;
10934;SDS011;5520;45.752;4.874;2023-03-01T02:52:27;10.40;;;8.57;;
10934;SDS011;5520;45.752;4.874;2023-03-01T02:54:59;16.27;;;9.47;;
10934;SDS011;5520;45.752;4.874;2023-03-01T02:57:29;11.97;;;9.07;;
10934;SDS011;5520;45.752;4.874;2023-03-01T02:59:58;13.77;;;9.73;;
10934;SDS011;5520;45.752;4.874;2023-03-01T03:02:29;13.07;;;9.23;;
10934;SDS011;5520;45.752;4.874;2023-03-01T03:05:04;12.37;;;9.10;;
10934;SDS011;5520;45.752;4.874;2023-03-01T03:07:32;14.57;;;9.67;;
10934;SDS011;5520;45.752;4.874;2023-03-01T03:10:01;14.30;;;10.00;;
10934;SDS011;5520;45.752;4.874;2023-03-01T03:12:29;12.80;;;9.57;;
10934;SDS011;5520;45.752;4.874;2023-03-01T03:14:57;15.67;;;9.63;;
10934;SDS011;5520;45.752;4.874;2023-03-01T03:17:25;11.97;;;9.00;;
10934;SDS011;5520;45.752;4.874;2023-03-01T03:19:54;12.70;;;9.43;;
10934;SDS011;5520;45.752;4.874;2023-03-01T03:22:22;13.00;;;9.97;;
10934;SDS011;5520;45.752;4.874;2023-03-01T03:24:50;13.93;;;9.40;;
10934;SDS011;5520;45.752;4.874;2023-03-01T03:27:18;15.23;;;8.97;;
10934;SDS011;5520;45.752;4.874;2023-03-01T03:29:46;14.43;;;9.43;;
10934;SDS011;5520;45.752;4.874;2023-03-01T03:32:14;11.07;;;8.77;;
10934;SDS011;5520;45.752;4.874;2023-03-01T03:34:42;15.10;;;10.20;;
10934;SDS011;5520;45.752;4.874;2023-03-01T03:37:11;13.80;;;9.63;;
10934;SDS011;5520;45.752;4.874;2023-03-01T03:39:53;14.13;;;9.10;;
10934;SDS011;5520;45.752;4.874;2023-03-01T03:42:21;14.63;;;10.60;;
10934;SDS011;5520;45.752;4.874;2023-03-01T03:44:49;11.43;;;8.90;;
10934;SDS011;5520;45.752;4.874;2023-03-01T03:47:17;16.20;;;9.93;;
10934;SDS011;5520;45.752;4.874;2023-03-01T03:49:47;13.03;;;9.70;;
10934;SDS011;5520;45.752;4.874;2023-03-01T03:52:17;13.03;;;8.93;;
10934;SDS011;5520;45.752;4.874;2023-03-01T03:54:47;14.93;;;9.80;;
10934;SDS011;5520;45.752;4.874;2023-03-01T03:57:15;13.03;;;9.63;;
10934;SDS011;5520;45.752;4.874;2023-03-01T03:59:43;14.37;;;9.53;;
10934;SDS011;5520;45.752;4.874;2023-03-01T04:02:11;12.80;;;9.17;;
10934;SDS011;5520;45.752;4.874;2023-03-01T04:04:39;14.13;;;9.03;;
10934;SDS011;5520;45.752;4.874;2023-03-01T04:07:07;12.73;;;9.17;;
10934;SDS011;5520;45.752;4.874;2023-03-01T04:09:36;17.10;;;9.10;;
10934;SDS011;5520;45.752;4.874;2023-03-01T04:12:04;13.70;;;9.60;;
10934;SDS011;5520;45.752;4.874;2023-03-01T04:14:32;14.47;;;9.20;;
10934;SDS011;5520;45.752;4.874;2023-03-01T04:17:00;14.03;;;9.90;;
10934;SDS011;5520;45.752;4.874;2023-03-01T04:19:31;12.27;;;8.97;;
10934;SDS011;5520;45.752;4.874;2023-03-01T04:22:02;17.47;;;9.27;;
10934;SDS011;5520;45.752;4.874;2023-03-01T04:24:37;17.43;;;10.47;;
10934;SDS011;5520;45.752;4.874;2023-03-01T04:27:05;13.67;;;10.00;;
10934;SDS011;5520;45.752;4.874;2023-03-01T04:29:32;12.53;;;9.33;;
10934;SDS011;5520;45.752;4.874;2023-03-01T04:32:00;13.70;;;10.00;;
10934;SDS011;5520;45.752;4.874;2023-03-01T04:34:29;12.93;;;9.20;;
10934;SDS011;5520;45.752;4.874;2023-03-01T04:36:57;14.23;;;10.27;;
10934;SDS011;5520;45.752;4.874;2023-03-01T04:39:25;13.17;;;9.27;;
10934;SDS011;5520;45.752;4.874;2023-03-01T04:41:54;10.63;;;8.87;;
10934;SDS011;5520;45.752;4.874;2023-03-01T04:44:22;13.60;;;9.57;;
10934;SDS011;5520;45.752;4.874;2023-03-01T04:46:50;17.17;;;9.90;;
10934;SDS011;5520;45.752;4.874;2023-03-01T04:49:18;13.13;;;9.60;;
10934;SDS011;5520;45.752;4.874;2023-03-01T04:51:46;17.90;;;9.50;;
10934;SDS011;5520;45.752;4.874;2023-03-01T04:54:15;14.23;;;9.83;;
10934;SDS011;5520;45.752;4.874;2023-03-01T04:56:43;11.30;;;9.03;;
10934;SDS011;5520;45.752;4.874;2023-03-01T04:59:12;12.77;;;9.53;;
10934;SDS011;5520;45.752;4.874;2023-03-01T05:01:40;14.57;;;9.63;;
10934;SDS011;5520;45.752;4.874;2023-03-01T05:04:09;13.77;;;9.37;;
10934;SDS011;5520;45.752;4.874;2023-03-01T05:06:39;15.07;;;10.20;;
10934;SDS011;5520;45.752;4.874;2023-03-01T05:09:07;11.93;;;9.07;;
10934;SDS011;5520;45.752;4.874;2023-03-01T05:11:37;13.67;;;9.43;;
10934;SDS011;5520;45.752;4.874;2023-03-01T05:14:06;14.80;;;9.60;;
10934;SDS011;5520;45.752;4.874;2023-03-01T05:16:35;14.27;;;9.00;;
10934;SDS011;5520;45.752;4.874;2023-03-01T05:19:03;15.73;;;9.67;;
10934;SDS011;5520;45.752;4.874;2023-03-01T05:21:38;14.97;;;9.93;;
10934;SDS011;5520;45.752;4.874;2023-03-01T05:24:26;12.37;;;9.57;;
10934;SDS011;5520;45.752;4.874;2023-03-01T05:26:54;14.17;;;10.00;;
10934;SDS011;5520;45.752;4.874;2023-03-01T05:29:23;10.90;;;8.40;;
10934;SDS011;5520;45.752;4.874;2023-03-01T05:31:54;12.60;;;9.47;;
10934;SDS011;5520;45.752;4.874;2023-03-01T05:34:23;15.80;;;9.47;;
10934;SDS011;5520;45.752;4.874;2023-03-01T05:36:51;12.80;;;9.13;;
10934;SDS011;5520;45.752;4.874;2023-03-01T05:39:20;18.97;;;11.43;;
10934;SDS011;5520;45.752;4.874;2023-03-01T05:41:51;14.20;;;10.17;;
10934;SDS011;5520;45.752;4.874;2023-03-01T05:44:19;17.83;;;10.87;;
10934;SDS011;5520;45.752;4.874;2023-03-01T05:46:47;14.33;;;8.83;;
10934;SDS011;5520;45.752;4.874;2023-03-01T05:49:17;16.30;;;10.70;;
10934;SDS011;5520;45.752;4.874;2023-03-01T05:51:47;14.57;;;10.10;;
10934;SDS011;5520;45.752;4.874;2023-03-01T05:54:16;13.90;;;9.43;;
10934;SDS011;5520;45.752;4.874;2023-03-01T05:56:44;16.07;;;11.63;;
10934;SDS011;5520;45.752;4.874;2023-03-01T05:59:12;13.73;;;10.00;;
10934;SDS011;5520;45.752;4.874;2023-03-01T06:01:40;15.27;;;10.53;;
10934;SDS011;5520;45.752;4.874;2023-03-01T06:04:08;14.30;;;10.10;;
10934;SDS011;5520;45.752;4.874;2023-03-01T06:06:37;13.10;;;9.50;;
10934;SDS011;5520;45.752;4.874;2023-03-01T06:09:06;16.73;;;10.73;;
10934;SDS011;5520;45.752;4.874;2023-03-01T06:11:36;15.23;;;9.73;;
10934;SDS011;5520;45.752;4.874;2023-03-01T06:14:04;12.50;;;9.70;;
10934;SDS011;5520;45.752;4.874;2023-03-01T06:16:34;15.10;;;10.70;;
10934;SDS011;5520;45.752;4.874;2023-03-01T06:19:02;14.63;;;10.23;;
10934;SDS011;5520;45.752;4.874;2023-03-01T06:21:30;16.03;;;10.70;;
10934;SDS011;5520;45.752;4.874;2023-03-01T06:23:59;17.53;;;10.70;;
10934;SDS011;5520;45.752;4.874;2023-03-01T06:26:27;20.77;;;9.83;;
10934;SDS011;5520;45.752;4.874;2023-03-01T06:28:55;15.47;;;10.70;;
10934;SDS011;5520;45.752;4.874;2023-03-01T06:31:23;14.37;;;9.77;;
10934;SDS011;5520;45.752;4.874;2023-03-01T06:33:51;12.50;;;9.50;;
10934;SDS011;5520;45.752;4.874;2023-03-01T06:36:19;16.97;;;10.30;;
10934;SDS011;5520;45.752;4.874;2023-03-01T06:38:48;18.23;;;11.87;;
10934;SDS011;5520;45.752;4.874;2023-03-01T06:41:17;13.33;;;10.50;;
10934;SDS011;5520;45.752;4.874;2023-03-01T06:43:45;13.40;;;11.17;;
10934;SDS011;5520;45.752;4.874;2023-03-01T06:46:13;17.27;;;10.90;;
10934;SDS011;5520;45.752;4.874;2023-03-01T06:48:41;12.43;;;10.27;;
10934;SDS011;5520;45.752;4.874;2023-03-01T06:51:09;14.33;;;10.43;;
10934;SDS011;5520;45.752;4.874;2023-03-01T06:53:37;14.77;;;10.33;;
10934;SDS011;5520;45.752;4.874;2023-03-01T06:56:05;17.30;;;11.23;;
10934;SDS011;5520;45.752;4.874;2023-03-01T06:58:35;17.47;;;11.10;;
10934;SDS011;5520;45.752;4.874;2023-03-01T07:01:05;15.50;;;10.70;;
10934;SDS011;5520;45.752;4.874;2023-03-01T07:03:33;15.07;;;10.63;;
10934;SDS011;5520;45.752;4.874;2023-03-01T07:06:03;14.20;;;10.03;;
10934;SDS011;5520;45.752;4.874;2023-03-01T07:08:31;14.87;;;11.10;;
10934;SDS011;5520;45.752;4.874;2023-03-01T07:10:59;16.77;;;11.50;;
10934;SDS011;5520;45.752;4.874;2023-03-01T07:13:28;14.30;;;10.93;;
10934;SDS011;5520;45.752;4.874;2023-03-01T07:15:58;18.13;;;11.47;;
10934;SDS011;5520;45.752;4.874;2023-03-01T07:18:26;18.03;;;11.30;;
10934;SDS011;5520;45.752;4.874;2023-03-01T07:20:54;17.33;;;11.73;;
10934;SDS011;5520;45.752;4.874;2023-03-01T07:23:22;15.50;;;10.93;;
10934;SDS011;5520;45.752;4.874;2023-03-01T07:25:53;19.90;;;12.23;;
10934;SDS011;5520;45.752;4.874;2023-03-01T07:28:22;17.13;;;11.80;;
10934;SDS011;5520;45.752;4.874;2023-03-01T07:30:50;18.13;;;11.83;;
10934;SDS011;5520;45.752;4.874;2023-03-01T07:33:19;16.90;;;12.13;;
10934;SDS011;5520;45.752;4.874;2023-03-01T07:35:47;15.27;;;11.80;;
10934;SDS011;5520;45.752;4.874;2023-03-01T07:38:15;18.57;;;11.63;;
10934;SDS011;5520;45.752;4.874;2023-03-01T07:40:43;17.63;;;12.87;;
10934;SDS011;5520;45.752;4.874;2023-03-01T07:43:11;19.70;;;12.03;;
10934;SDS011;5520;45.752;4.874;2023-03-01T07:45:39;17.97;;;11.53;;
10934;SDS011;5520;45.752;4.874;2023-03-01T07:48:07;17.97;;;12.33;;
10934;SDS011;5520;45.752;4.874;2023-03-01T07:50:36;18.63;;;12.03;;
10934;SDS011;5520;45.752;4.874;2023-03-01T07:53:04;18.47;;;12.33;;
10934;SDS011;5520;45.752;4.874;2023-03-01T07:55:32;16.13;;;11.63;;
10934;SDS011;5520;45.752;4.874;2023-03-01T07:58:00;20.93;;;13.07;;
10934;SDS011;5520;45.752;4.874;2023-03-01T08:00:28;19.80;;;12.80;;
10934;SDS011;5520;45.752;4.874;2023-03-01T08:02:58;20.00;;;11.97;;
10934;SDS011;5520;45.752;4.874;2023-03-01T08:05:26;16.37;;;12.43;;
10934;SDS011;5520;45.752;4.874;2023-03-01T08:07:55;23.80;;;12.50;;
10934;SDS011;5520;45.752;4.874;2023-03-01T08:10:24;18.47;;;12.13;;
10934;SDS011;5520;45.752;4.874;2023-03-01T08:12:52;18.40;;;12.90;;
10934;SDS011;5520;45.752;4.874;2023-03-01T08:15:20;20.67;;;13.60;;
10934;SDS011;5520;45.752;4.874;2023-03-01T08:17:51;19.37;;;12.93;;
10934;SDS011;5520;45.752;4.874;2023-03-01T08:20:19;22.23;;;12.87;;
10934;SDS011;5520;45.752;4.874;2023-03-01T08:22:52;19.50;;;13.00;;
10934;SDS011;5520;45.752;4.874;2023-03-01T08:25:22;21.33;;;13.57;;
10934;SDS011;5520;45.752;4.874;2023-03-01T08:27:50;15.87;;;13.00;;
10934;SDS011;5520;45.752;4.874;2023-03-01T08:30:20;15.30;;;12.00;;
10934;SDS011;5520;45.752;4.874;2023-03-01T08:32:50;18.27;;;12.70;;
10934;SDS011;5520;45.752;4.874;2023-03-01T08:35:19;17.33;;;12.40;;
10934;SDS011;5520;45.752;4.874;2023-03-01T08:37:47;20.50;;;13.90;;
10934;SDS011;5520;45.752;4.874;2023-03-01T08:40:18;18.60;;;12.40;;
10934;SDS011;5520;45.752;4.874;2023-03-01T08:42:48;47.57;;;27.90;;
10934;SDS011;5520;45.752;4.874;2023-03-01T08:45:16;20.83;;;13.47;;
10934;SDS011;5520;45.752;4.874;2023-03-01T08:47:45;19.80;;;12.80;;
10934;SDS011;5520;45.752;4.874;2023-03-01T08:50:13;16.80;;;12.70;;
10934;SDS011;5520;45.752;4.874;2023-03-01T08:52:41;17.30;;;11.93;;
10934;SDS011;5520;45.752;4.874;2023-03-01T08:55:09;21.47;;;12.57;;
10934;SDS011;5520;45.752;4.874;2023-03-01T08:57:37;17.60;;;13.43;;
10934;SDS011;5520;45.752;4.874;2023-03-01T09:00:07;17.77;;;12.47;;
10934;SDS011;5520;45.752;4.874;2023-03-01T09:02:36;20.40;;;13.27;;
10934;SDS011;5520;45.752;4.874;2023-03-01T09:05:05;18.70;;;13.13;;
10934;SDS011;5520;45.752;4.874;2023-03-01T09:07:33;17.80;;;12.20;;
10934;SDS011;5520;45.752;4.874;2023-03-01T09:10:05;22.73;;;13.57;;
10934;SDS011;5520;45.752;4.874;2023-03-01T09:12:33;25.00;;;13.13;;
10934;SDS011;5520;45.752;4.874;2023-03-01T09:15:01;18.53;;;12.83;;
10934;SDS011;5520;45.752;4.874;2023-03-01T09:17:30;16.67;;;12.57;;
10934;SDS011;5520;45.752;4.874;2023-03-01T09:19:59;19.70;;;12.97;;
10934;SDS011;5520;45.752;4.874;2023-03-01T09:22:27;20.80;;;13.37;;
10934;SDS011;5520;45.752;4.874;2023-03-01T09:24:55;24.43;;;13.30;;
10934;SDS011;5520;45.752;4.874;2023-03-01T09:27:25;24.67;;;14.60;;
10934;SDS011;5520;45.752;4.874;2023-03-01T09:29:53;18.40;;;13.27;;
10934;SDS011;5520;45.752;4.874;2023-03-01T09:32:23;37.30;;;20.13;;
10934;SDS011;5520;45.752;4.874;2023-03-01T09:34:52;20.27;;;13.20;;
10934;SDS011;5520;45.752;4.874;2023-03-01T09:37:35;19.80;;;12.80;;
10934;SDS011;5520;45.752;4.874;2023-03-01T09:40:04;18.03;;;13.80;;
10934;SDS011;5520;45.752;4.874;2023-03-01T09:42:34;21.33;;;13.07;;
10934;SDS011;5520;45.752;4.874;2023-03-01T09:45:05;20.07;;;13.03;;
10934;SDS011;5520;45.752;4.874;2023-03-01T09:47:34;24.17;;;13.50;;
10934;SDS011;5520;45.752;4.874;2023-03-01T09:50:06;20.87;;;14.03;;
10934;SDS011;5520;45.752;4.874;2023-03-01T09:52:39;17.83;;;12.43;;
10934;SDS011;5520;45.752;4.874;2023-03-01T09:55:09;21.13;;;13.53;;
10934;SDS011;5520;45.752;4.874;2023-03-01T09:57:39;20.40;;;14.67;;
10934;SDS011;5520;45.752;4.874;2023-03-01T10:00:12;17.43;;;12.23;;
10934;SDS011;5520;45.752;4.874;2023-03-01T10:02:44;19.20;;;13.23;;
10934;SDS011;5520;45.752;4.874;2023-03-01T10:05:18;19.57;;;13.43;;
10934;SDS011;5520;45.752;4.874;2023-03-01T10:07:52;22.57;;;14.20;;
10934;SDS011;5520;45.752;4.874;2023-03-01T10:10:25;18.73;;;12.87;;
10934;SDS011;5520;45.752;4.874;2023-03-01T10:12:54;22.00;;;12.27;;
10934;SDS011;5520;45.752;4.874;2023-03-01T10:15:25;17.67;;;13.10;;
10934;SDS011;5520;45.752;4.874;2023-03-01T10:17:59;19.03;;;12.40;;
10934;SDS011;5520;45.752;4.874;2023-03-01T10:20:33;21.00;;;13.37;;
10934;SDS011;5520;45.752;4.874;2023-03-01T10:23:02;20.63;;;13.13;;
10934;SDS011;5520;45.752;4.874;2023-03-01T10:25:36;19.63;;;12.70;;
10934;SDS011;5520;45.752;4.874;2023-03-01T10:28:10;20.90;;;13.67;;
10934;SDS011;5520;45.752;4.874;2023-03-01T10:30:41;18.53;;;12.37;;
10934;SDS011;5520;45.752;4.874;2023-03-01T10:33:13;25.13;;;13.13;;
10934;SDS011;5520;45.752;4.874;2023-03-01T10:35:44;18.90;;;13.40;;
10934;SDS011;5520;45.752;4.874;2023-03-01T10:38:14;21.73;;;13.90;;
10934;SDS011;5520;45.752;4.874;2023-03-01T10:40:52;21.57;;;13.57;;
10934;SDS011;5520;45.752;4.874;2023-03-01T10:43:21;18.07;;;13.20;;
10934;SDS011;5520;45.752;4.874;2023-03-01T10:45:50;20.10;;;14.13;;
10934;SDS011;5520;45.752;4.874;2023-03-01T10:48:19;22.40;;;14.53;;
10934;SDS011;5520;45.752;4.874;2023-03-01T10:51:03;22.73;;;14.80;;
10934;SDS011;5520;45.752;4.874;2023-03-01T10:53:33;20.03;;;13.07;;
10934;SDS011;5520;45.752;4.874;2023-03-01T10:56:03;19.17;;;13.87;;
10934;SDS011;5520;45.752;4.874;2023-03-01T10:58:31;19.97;;;13.53;;
10934;SDS011;5520;45.752;4.874;2023-03-01T11:01:00;23.53;;;14.33;;
10934;SDS011;5520;45.752;4.874;2023-03-01T11:03:29;21.83;;;13.20;;
10934;SDS011;5520;45.752;4.874;2023-03-01T11:06:01;21.43;;;14.67;;
10934;SDS011;5520;45.752;4.874;2023-03-01T11:08:31;20.90;;;14.80;;
10934;SDS011;5520;45.752;4.874;2023-03-01T11:11:04;22.23;;;14.23;;
10934;SDS011;5520;45.752;4.874;2023-03-01T11:13:32;18.97;;;13.40;;
10934;SDS011;5520;45.752;4.874;2023-03-01T11:16:12;20.17;;;13.70;;
10934;SDS011;5520;45.752;4.874;2023-03-01T11:18:40;20.70;;;13.80;;
10934;SDS011;5520;45.752;4.874;2023-03-01T11:21:15;26.00;;;15.57;;
10934;SDS011;5520;45.752;4.874;2023-03-01T11:23:43;20.90;;;13.87;;
10934;SDS011;5520;45.752;4.874;2023-03-01T11:26:13;26.73;;;17.67;;
10934;SDS011;5520;45.752;4.874;2023-03-01T11:28:41;23.80;;;15.40;;
10934;SDS011;5520;45.752;4.874;2023-03-01T11:31:10;24.20;;;15.13;;
10934;SDS011;5520;45.752;4.874;2023-03-01T11:33:40;21.97;;;14.20;;
10934;SDS011;5520;45.752;4.874;2023-03-01T11:36:13;21.33;;;13.83;;
10934;SDS011;5520;45.752;4.874;2023-03-01T11:38:47;21.80;;;14.93;;
10934;SDS011;5520;45.752;4.874;2023-03-01T11:41:15;21.87;;;13.73;;
10934;SDS011;5520;45.752;4.874;2023-03-01T11:43:47;21.20;;;14.57;;
10934;SDS011;5520;45.752;4.874;2023-03-01T11:49:09;20.73;;;14.23;;
10934;SDS011;5520;45.752;4.874;2023-03-01T11:51:45;22.63;;;14.90;;
10934;SDS011;5520;45.752;4.874;2023-03-01T11:54:24;20.00;;;14.43;;
10934;SDS011;5520;45.752;4.874;2023-03-01T11:56:55;23.63;;;14.70;;
10934;SDS011;5520;45.752;4.874;2023-03-01T12:07:50;22.13;;;14.73;;
10934;SDS011;5520;45.752;4.874;2023-03-01T12:10:23;22.37;;;15.30;;
10934;SDS011;5520;45.752;4.874;2023-03-01T12:12:58;22.37;;;14.53;;
10934;SDS011;5520;45.752;4.874;2023-03-01T12:21:02;24.17;;;15.23;;
10934;SDS011;5520;45.752;4.874;2023-03-01T12:26:19;23.27;;;14.90;;
10934;SDS011;5520;45.752;4.874;2023-03-01T12:28:56;21.67;;;15.40;;
10934;SDS011;5520;45.752;4.874;2023-03-01T12:31:41;23.47;;;15.30;;
10934;SDS011;5520;45.752;4.874;2023-03-01T12:34:16;21.67;;;15.13;;
10934;SDS011;5520;45.752;4.874;2023-03-01T12:36:53;21.57;;;14.80;;
10934;SDS011;5520;45.752;4.874;2023-03-01T12:39:32;20.67;;;15.43;;
10934;SDS011;5520;45.752;4.874;2023-03-01T12:42:10;24.40;;;15.10;;
10934;SDS011;5520;45.752;4.874;2023-03-01T12:44:48;27.10;;;14.93;;
10934;SDS011;5520;45.752;4.874;2023-03-01T12:47:31;20.37;;;14.27;;
10934;SDS011;5520;45.752;4.874;2023-03-01T12:50:02;22.13;;;15.13;;
10934;SDS011;5520;45.752;4.874;2023-03-01T12:52:35;25.17;;;14.60;;
10934;SDS011;5520;45.752;4.874;2023-03-01T12:55:06;22.67;;;15.60;;
10934;SDS011;5520;45.752;4.874;2023-03-01T12:57:38;21.33;;;14.97;;
10934;SDS011;5520;45.752;4.874;2023-03-01T13:00:17;25.13;;;14.43;;
10934;SDS011;5520;45.752;4.874;2023-03-01T13:02:49;22.40;;;15.57;;
10934;SDS011;5520;45.752;4.874;2023-03-01T13:05:20;21.07;;;15.43;;
10934;SDS011;5520;45.752;4.874;2023-03-01T13:07:52;22.87;;;15.67;;
10934;SDS011;5520;45.752;4.874;2023-03-01T13:10:24;24.40;;;14.97;;
10934;SDS011;5520;45.752;4.874;2023-03-01T13:13:02;20.67;;;14.83;;
10934;SDS011;5520;45.752;4.874;2023-03-01T13:15:31;27.10;;;16.27;;
10934;SDS011;5520;45.752;4.874;2023-03-01T13:18:01;24.20;;;14.80;;
10934;SDS011;5520;45.752;4.874;2023-03-01T13:20:30;23.13;;;16.03;;
10934;SDS011;5520;45.752;4.874;2023-03-01T13:23:00;22.73;;;15.70;;
10934;SDS011;5520;45.752;4.874;2023-03-01T13:25:28;24.47;;;15.73;;
10934;SDS011;5520;45.752;4.874;2023-03-01T13:30:55;23.57;;;15.83;;
10934;SDS011;5520;45.752;4.874;2023-03-01T13:38:57;20.33;;;15.37;;
10934;SDS011;5520;45.752;4.874;2023-03-01T13:44:11;22.80;;;15.47;;
10934;SDS011;5520;45.752;4.874;2023-03-01T13:46:42;23.17;;;15.93;;
10934;SDS011;5520;45.752;4.874;2023-03-01T13:49:11;23.80;;;15.73;;
10934;SDS011;5520;45.752;4.874;2023-03-01T13:51:41;22.73;;;15.07;;
10934;SDS011;5520;45.752;4.874;2023-03-01T13:54:15;23.67;;;15.33;;
10934;SDS011;5520;45.752;4.874;2023-03-01T13:56:45;21.93;;;15.47;;
10934;SDS011;5520;45.752;4.874;2023-03-01T13:59:14;22.17;;;15.30;;
10934;SDS011;5520;45.752;4.874;2023-03-01T14:01:44;24.17;;;14.70;;
10934;SDS011;5520;45.752;4.874;2023-03-01T14:04:20;27.83;;;15.70;;
10934;SDS011;5520;45.752;4.874;2023-03-01T14:06:51;21.40;;;14.87;;
10934;SDS011;5520;45.752;4.874;2023-03-01T14:09:21;22.53;;;14.97;;
10934;SDS011;5520;45.752;4.874;2023-03-01T14:14:44;24.13;;;15.67;;
10934;SDS011;5520;45.752;4.874;2023-03-01T14:17:18;20.17;;;14.90;;
10934;SDS011;5520;45.752;4.874;2023-03-01T14:19:54;20.50;;;14.47;;
10934;SDS011;5520;45.752;4.874;2023-03-01T14:22:22;22.47;;;15.53;;
10934;SDS011;5520;45.752;4.874;2023-03-01T14:24:51;20.40;;;13.80;;
10934;SDS011;5520;45.752;4.874;2023-03-01T14:27:20;19.93;;;14.80;;
10934;SDS011;5520;45.752;4.874;2023-03-01T14:29:57;21.00;;;14.80;;
10934;SDS011;5520;45.752;4.874;2023-03-01T14:32:28;20.33;;;14.10;;
10934;SDS011;5520;45.752;4.874;2023-03-01T14:34:56;23.10;;;14.50;;
10934;SDS011;5520;45.752;4.874;2023-03-01T14:37:26;20.77;;;14.53;;
10934;SDS011;5520;45.752;4.874;2023-03-01T14:39:55;21.23;;;14.77;;
10934;SDS011;5520;45.752;4.874;2023-03-01T14:42:24;21.80;;;14.00;;
10934;SDS011;5520;45.752;4.874;2023-03-01T14:44:54;23.00;;;15.10;;
10934;SDS011;5520;45.752;4.874;2023-03-01T14:47:25;20.80;;;14.47;;
10934;SDS011;5520;45.752;4.874;2023-03-01T14:49:57;19.37;;;13.93;;
10934;SDS011;5520;45.752;4.874;2023-03-01T14:52:28;20.67;;;15.07;;
10934;SDS011;5520;45.752;4.874;2023-03-01T14:55:00;25.83;;;14.73;;
10934;SDS011;5520;45.752;4.874;2023-03-01T14:57:29;20.57;;;13.40;;
10934;SDS011;5520;45.752;4.874;2023-03-01T14:59:57;23.13;;;14.43;;
10934;SDS011;5520;45.752;4.874;2023-03-01T15:02:26;20.80;;;14.57;;
10934;SDS011;5520;45.752;4.874;2023-03-01T15:04:58;19.57;;;14.60;;
10934;SDS011;5520;45.752;4.874;2023-03-01T15:07:29;23.27;;;14.83;;
10934;SDS011;5520;45.752;4.874;2023-03-01T15:09:58;20.03;;;13.77;;
10934;SDS011;5520;45.752;4.874;2023-03-01T15:12:34;22.23;;;14.37;;
10934;SDS011;5520;45.752;4.874;2023-03-01T15:17:48;19.47;;;13.87;;
10934;SDS011;5520;45.752;4.874;2023-03-01T15:20:18;21.60;;;14.13;;
10934;SDS011;5520;45.752;4.874;2023-03-01T15:22:48;21.70;;;14.37;;
10934;SDS011;5520;45.752;4.874;2023-03-01T15:25:16;23.17;;;14.40;;
10934;SDS011;5520;45.752;4.874;2023-03-01T15:27:45;20.27;;;14.10;;
10934;SDS011;5520;45.752;4.874;2023-03-01T15:30:13;20.23;;;13.77;;
10934;SDS011;5520;45.752;4.874;2023-03-01T15:32:45;20.07;;;13.80;;